sensor_id;sensor_type;location;lat;lon;timestamp;P1;durP1;ratioP1;P2;durP2;ratioP2
16892;SDS011;8563;52.242;9.098;2024-02-23T00:00:02;3.47;;;0.90;;
16892;SDS011;8563;52.242;9.098;2024-02-23T00:02:36;2.70;;;1.03;;
16892;SDS011;8563;52.242;9.098;2024-02-23T00:05:08;3.40;;;0.60;;
16892;SDS011;8563;52.242;9.098;2024-02-23T00:07:42;2.00;;;0.63;;
16892;SDS011;8563;52.242;9.098;2024-02-23T00:10:14;4.37;;;1.00;;
16892;SDS011;8563;52.242;9.098;2024-02-23T00:12:47;2.90;;;0.80;;
16892;SDS011;8563;52.242;9.098;2024-02-23T00:15:19;2.80;;;0.70;;
16892;SDS011;8563;52.242;9.098;2024-02-23T00:17:51;2.00;;;0.80;;
16892;SDS011;8563;52.242;9.098;2024-02-23T00:20:24;4.03;;;0.70;;
16892;SDS011;8563;52.242;9.098;2024-02-23T00:22:57;4.40;;;0.87;;
16892;SDS011;8563;52.242;9.098;2024-02-23T00:25:29;1.80;;;0.60;;
16892;SDS011;8563;52.242;9.098;2024-02-23T00:28:02;1.83;;;0.53;;
16892;SDS011;8563;52.242;9.098;2024-02-23T00:30:34;2.07;;;0.60;;
16892;SDS011;8563;52.242;9.098;2024-02-23T00:33:07;2.40;;;0.73;;
16892;SDS011;8563;52.242;9.098;2024-02-23T00:35:40;1.87;;;0.90;;
16892;SDS011;8563;52.242;9.098;2024-02-23T00:38:14;2.00;;;0.80;;
16892;SDS011;8563;52.242;9.098;2024-02-23T00:40:46;2.43;;;0.80;;
16892;SDS011;8563;52.242;9.098;2024-02-23T00:43:19;1.40;;;0.70;;
16892;SDS011;8563;52.242;9.098;2024-02-23T00:45:51;2.03;;;0.60;;
16892;SDS011;8563;52.242;9.098;2024-02-23T00:48:23;1.83;;;0.60;;
16892;SDS011;8563;52.242;9.098;2024-02-23T00:50:56;0.67;;;0.30;;
16892;SDS011;8563;52.242;9.098;2024-02-23T00:53:30;1.77;;;0.43;;
16892;SDS011;8563;52.242;9.098;2024-02-23T00:56:03;1.90;;;0.43;;
16892;SDS011;8563;52.242;9.098;2024-02-23T00:58:36;0.93;;;0.30;;
16892;SDS011;8563;52.242;9.098;2024-02-23T01:01:08;1.10;;;0.33;;
16892;SDS011;8563;52.242;9.098;2024-02-23T01:03:40;1.27;;;0.37;;
16892;SDS011;8563;52.242;9.098;2024-02-23T01:06:13;0.93;;;0.40;;
16892;SDS011;8563;52.242;9.098;2024-02-23T01:08:46;0.40;;;0.20;;
16892;SDS011;8563;52.242;9.098;2024-02-23T01:11:19;1.60;;;0.47;;
16892;SDS011;8563;52.242;9.098;2024-02-23T01:13:51;2.00;;;0.60;;
16892;SDS011;8563;52.242;9.098;2024-02-23T01:16:23;0.93;;;0.30;;
16892;SDS011;8563;52.242;9.098;2024-02-23T01:18:55;1.07;;;0.20;;
16892;SDS011;8563;52.242;9.098;2024-02-23T01:21:28;0.47;;;0.20;;
16892;SDS011;8563;52.242;9.098;2024-02-23T01:24:02;3.23;;;0.20;;
16892;SDS011;8563;52.242;9.098;2024-02-23T01:26:34;1.07;;;0.20;;
16892;SDS011;8563;52.242;9.098;2024-02-23T01:29:07;0.20;;;0.10;;
16892;SDS011;8563;52.242;9.098;2024-02-23T01:31:39;0.20;;;0.10;;
16892;SDS011;8563;52.242;9.098;2024-02-23T01:34:11;0.40;;;0.13;;
16892;SDS011;8563;52.242;9.098;2024-02-23T01:36:44;0.20;;;0.10;;
16892;SDS011;8563;52.242;9.098;2024-02-23T01:39:17;0.50;;;0.10;;
16892;SDS011;8563;52.242;9.098;2024-02-23T01:41:50;1.33;;;0.20;;
16892;SDS011;8563;52.242;9.098;2024-02-23T01:44:22;0.40;;;0.10;;
16892;SDS011;8563;52.242;9.098;2024-02-23T01:46:54;0.20;;;0.10;;
16892;SDS011;8563;52.242;9.098;2024-02-23T01:49:27;0.73;;;0.10;;
16892;SDS011;8563;52.242;9.098;2024-02-23T01:52:01;0.23;;;0.10;;
16892;SDS011;8563;52.242;9.098;2024-02-23T01:54:36;0.20;;;0.10;;
16892;SDS011;8563;52.242;9.098;2024-02-23T01:57:08;0.20;;;0.10;;
16892;SDS011;8563;52.242;9.098;2024-02-23T01:59:41;0.77;;;0.10;;
16892;SDS011;8563;52.242;9.098;2024-02-23T02:02:15;1.70;;;0.10;;
16892;SDS011;8563;52.242;9.098;2024-02-23T02:04:48;0.77;;;0.10;;
16892;SDS011;8563;52.242;9.098;2024-02-23T02:07:20;0.67;;;0.20;;
16892;SDS011;8563;52.242;9.098;2024-02-23T02:09:55;0.80;;;0.20;;
16892;SDS011;8563;52.242;9.098;2024-02-23T02:12:27;0.20;;;0.10;;
16892;SDS011;8563;52.242;9.098;2024-02-23T02:15:00;0.77;;;0.10;;
16892;SDS011;8563;52.242;9.098;2024-02-23T02:17:33;0.20;;;0.10;;
16892;SDS011;8563;52.242;9.098;2024-02-23T02:20:06;0.40;;;0.20;;
16892;SDS011;8563;52.242;9.098;2024-02-23T02:22:42;0.30;;;0.20;;
16892;SDS011;8563;52.242;9.098;2024-02-23T02:25:15;2.00;;;0.40;;
16892;SDS011;8563;52.242;9.098;2024-02-23T02:27:48;0.63;;;0.30;;
16892;SDS011;8563;52.242;9.098;2024-02-23T02:30:20;0.70;;;0.30;;
16892;SDS011;8563;52.242;9.098;2024-02-23T02:32:53;1.17;;;0.40;;
16892;SDS011;8563;52.242;9.098;2024-02-23T02:35:25;0.87;;;0.43;;
16892;SDS011;8563;52.242;9.098;2024-02-23T02:37:57;2.20;;;0.50;;
16892;SDS011;8563;52.242;9.098;2024-02-23T02:40:31;1.00;;;0.50;;
16892;SDS011;8563;52.242;9.098;2024-02-23T02:43:03;3.13;;;0.60;;
16892;SDS011;8563;52.242;9.098;2024-02-23T02:45:36;2.23;;;0.60;;
16892;SDS011;8563;52.242;9.098;2024-02-23T02:48:08;1.30;;;0.50;;
16892;SDS011;8563;52.242;9.098;2024-02-23T02:50:41;1.63;;;0.53;;
16892;SDS011;8563;52.242;9.098;2024-02-23T02:53:14;0.60;;;0.40;;
16892;SDS011;8563;52.242;9.098;2024-02-23T02:55:48;1.60;;;0.60;;
16892;SDS011;8563;52.242;9.098;2024-02-23T02:58:20;1.47;;;0.50;;
16892;SDS011;8563;52.242;9.098;2024-02-23T03:00:52;0.77;;;0.50;;
16892;SDS011;8563;52.242;9.098;2024-02-23T03:03:25;0.70;;;0.40;;
16892;SDS011;8563;52.242;9.098;2024-02-23T03:05:57;1.30;;;0.70;;
16892;SDS011;8563;52.242;9.098;2024-02-23T03:08:29;1.50;;;0.50;;
16892;SDS011;8563;52.242;9.098;2024-02-23T03:11:03;0.97;;;0.60;;
16892;SDS011;8563;52.242;9.098;2024-02-23T03:13:35;1.73;;;0.63;;
16892;SDS011;8563;52.242;9.098;2024-02-23T03:16:14;2.67;;;0.93;;
16892;SDS011;8563;52.242;9.098;2024-02-23T03:18:46;2.40;;;0.60;;
16892;SDS011;8563;52.242;9.098;2024-02-23T03:21:19;1.97;;;0.80;;
16892;SDS011;8563;52.242;9.098;2024-02-23T03:23:51;3.03;;;0.80;;
16892;SDS011;8563;52.242;9.098;2024-02-23T03:26:25;1.63;;;0.70;;
16892;SDS011;8563;52.242;9.098;2024-02-23T03:28:57;2.13;;;0.90;;
16892;SDS011;8563;52.242;9.098;2024-02-23T03:31:30;3.60;;;1.00;;
16892;SDS011;8563;52.242;9.098;2024-02-23T03:34:02;1.73;;;0.90;;
16892;SDS011;8563;52.242;9.098;2024-02-23T03:36:34;1.43;;;0.93;;
16892;SDS011;8563;52.242;9.098;2024-02-23T03:39:08;3.37;;;0.90;;
16892;SDS011;8563;52.242;9.098;2024-02-23T03:41:43;3.07;;;1.30;;
16892;SDS011;8563;52.242;9.098;2024-02-23T03:44:15;1.33;;;0.80;;
16892;SDS011;8563;52.242;9.098;2024-02-23T03:46:48;1.93;;;0.90;;
16892;SDS011;8563;52.242;9.098;2024-02-23T03:49:20;2.53;;;0.90;;
16892;SDS011;8563;52.242;9.098;2024-02-23T03:51:52;2.93;;;0.90;;
16892;SDS011;8563;52.242;9.098;2024-02-23T03:54:24;3.30;;;0.83;;
16892;SDS011;8563;52.242;9.098;2024-02-23T03:56:58;2.73;;;0.90;;
16892;SDS011;8563;52.242;9.098;2024-02-23T03:59:31;3.93;;;0.90;;
16892;SDS011;8563;52.242;9.098;2024-02-23T04:02:03;2.73;;;0.77;;
16892;SDS011;8563;52.242;9.098;2024-02-23T04:04:36;2.20;;;1.00;;
16892;SDS011;8563;52.242;9.098;2024-02-23T04:07:08;3.17;;;1.20;;
16892;SDS011;8563;52.242;9.098;2024-02-23T04:09:40;4.03;;;1.30;;
16892;SDS011;8563;52.242;9.098;2024-02-23T04:12:14;2.00;;;1.00;;
16892;SDS011;8563;52.242;9.098;2024-02-23T04:14:46;2.87;;;1.10;;
16892;SDS011;8563;52.242;9.098;2024-02-23T04:17:19;3.03;;;1.10;;
16892;SDS011;8563;52.242;9.098;2024-02-23T04:19:51;3.63;;;1.23;;
16892;SDS011;8563;52.242;9.098;2024-02-23T04:22:26;3.03;;;0.80;;
16892;SDS011;8563;52.242;9.098;2024-02-23T04:24:59;3.67;;;0.80;;
16892;SDS011;8563;52.242;9.098;2024-02-23T04:27:32;2.87;;;0.90;;
16892;SDS011;8563;52.242;9.098;2024-02-23T04:30:05;2.47;;;0.80;;
16892;SDS011;8563;52.242;9.098;2024-02-23T04:32:38;3.10;;;0.83;;
16892;SDS011;8563;52.242;9.098;2024-02-23T04:35:10;2.93;;;0.90;;
16892;SDS011;8563;52.242;9.098;2024-02-23T04:37:43;3.23;;;1.20;;
16892;SDS011;8563;52.242;9.098;2024-02-23T04:40:16;2.47;;;0.90;;
16892;SDS011;8563;52.242;9.098;2024-02-23T04:42:50;4.33;;;1.00;;
16892;SDS011;8563;52.242;9.098;2024-02-23T04:45:22;3.00;;;0.87;;
16892;SDS011;8563;52.242;9.098;2024-02-23T04:47:54;2.00;;;0.80;;
16892;SDS011;8563;52.242;9.098;2024-02-23T04:50:26;4.17;;;0.93;;
16892;SDS011;8563;52.242;9.098;2024-02-23T04:52:58;2.03;;;0.80;;
16892;SDS011;8563;52.242;9.098;2024-02-23T04:55:31;2.13;;;0.60;;
16892;SDS011;8563;52.242;9.098;2024-02-23T04:58:05;1.40;;;0.70;;
16892;SDS011;8563;52.242;9.098;2024-02-23T05:00:38;3.77;;;0.83;;
16892;SDS011;8563;52.242;9.098;2024-02-23T05:03:10;2.70;;;0.70;;
16892;SDS011;8563;52.242;9.098;2024-02-23T05:05:43;3.63;;;0.87;;
16892;SDS011;8563;52.242;9.098;2024-02-23T05:08:15;2.27;;;0.73;;
16892;SDS011;8563;52.242;9.098;2024-02-23T05:10:48;4.17;;;1.20;;
16892;SDS011;8563;52.242;9.098;2024-02-23T05:13:22;3.60;;;0.80;;
16892;SDS011;8563;52.242;9.098;2024-02-23T05:15:55;1.97;;;0.60;;
16892;SDS011;8563;52.242;9.098;2024-02-23T05:18:27;2.57;;;0.80;;
16892;SDS011;8563;52.242;9.098;2024-02-23T05:21:00;4.93;;;1.20;;
16892;SDS011;8563;52.242;9.098;2024-02-23T05:23:32;5.03;;;0.90;;
16892;SDS011;8563;52.242;9.098;2024-02-23T05:26:04;5.67;;;1.17;;
16892;SDS011;8563;52.242;9.098;2024-02-23T05:28:38;1.83;;;0.80;;
16892;SDS011;8563;52.242;9.098;2024-02-23T05:31:10;3.93;;;0.90;;
16892;SDS011;8563;52.242;9.098;2024-02-23T05:33:42;1.40;;;0.60;;
16892;SDS011;8563;52.242;9.098;2024-02-23T05:36:14;4.27;;;1.10;;
16892;SDS011;8563;52.242;9.098;2024-02-23T05:38:48;6.90;;;1.40;;
16892;SDS011;8563;52.242;9.098;2024-02-23T05:41:21;2.33;;;1.03;;
16892;SDS011;8563;52.242;9.098;2024-02-23T05:43:54;3.80;;;1.00;;
16892;SDS011;8563;52.242;9.098;2024-02-23T05:46:26;3.40;;;0.90;;
16892;SDS011;8563;52.242;9.098;2024-02-23T05:48:59;5.53;;;0.97;;
16892;SDS011;8563;52.242;9.098;2024-02-23T05:51:31;1.97;;;0.80;;
16892;SDS011;8563;52.242;9.098;2024-02-23T05:54:04;4.27;;;0.90;;
16892;SDS011;8563;52.242;9.098;2024-02-23T05:56:36;3.90;;;0.80;;
16892;SDS011;8563;52.242;9.098;2024-02-23T05:59:10;2.77;;;0.90;;
16892;SDS011;8563;52.242;9.098;2024-02-23T06:01:42;3.80;;;0.80;;
16892;SDS011;8563;52.242;9.098;2024-02-23T06:04:15;6.00;;;0.77;;
16892;SDS011;8563;52.242;9.098;2024-02-23T06:06:47;4.90;;;1.33;;
16892;SDS011;8563;52.242;9.098;2024-02-23T06:09:19;2.13;;;0.83;;
16892;SDS011;8563;52.242;9.098;2024-02-23T06:11:52;2.97;;;1.03;;
16892;SDS011;8563;52.242;9.098;2024-02-23T06:14:26;3.90;;;0.80;;
16892;SDS011;8563;52.242;9.098;2024-02-23T06:16:58;4.70;;;1.40;;
16892;SDS011;8563;52.242;9.098;2024-02-23T06:19:30;7.73;;;1.13;;
16892;SDS011;8563;52.242;9.098;2024-02-23T06:22:02;6.50;;;1.20;;
16892;SDS011;8563;52.242;9.098;2024-02-23T06:24:35;3.10;;;0.93;;
16892;SDS011;8563;52.242;9.098;2024-02-23T06:27:07;2.73;;;1.10;;
16892;SDS011;8563;52.242;9.098;2024-02-23T06:29:41;2.83;;;1.27;;
16892;SDS011;8563;52.242;9.098;2024-02-23T06:32:13;4.93;;;1.10;;
16892;SDS011;8563;52.242;9.098;2024-02-23T06:34:46;3.07;;;1.10;;
16892;SDS011;8563;52.242;9.098;2024-02-23T06:37:18;3.03;;;1.07;;
16892;SDS011;8563;52.242;9.098;2024-02-23T06:39:51;1.97;;;0.90;;
16892;SDS011;8563;52.242;9.098;2024-02-23T06:42:24;3.17;;;1.03;;
16892;SDS011;8563;52.242;9.098;2024-02-23T06:44:58;3.17;;;0.90;;
16892;SDS011;8563;52.242;9.098;2024-02-23T06:47:31;3.00;;;0.77;;
16892;SDS011;8563;52.242;9.098;2024-02-23T06:50:28;1.97;;;0.77;;
16892;SDS011;8563;52.242;9.098;2024-02-23T06:53:01;4.47;;;1.10;;
16892;SDS011;8563;52.242;9.098;2024-02-23T06:55:34;5.80;;;0.80;;
16892;SDS011;8563;52.242;9.098;2024-02-23T06:58:06;5.93;;;0.80;;
16892;SDS011;8563;52.242;9.098;2024-02-23T07:00:42;2.60;;;0.93;;
16892;SDS011;8563;52.242;9.098;2024-02-23T07:03:14;3.90;;;1.00;;
16892;SDS011;8563;52.242;9.098;2024-02-23T07:05:47;3.33;;;1.00;;
16892;SDS011;8563;52.242;9.098;2024-02-23T07:08:20;2.70;;;0.90;;
16892;SDS011;8563;52.242;9.098;2024-02-23T07:10:52;2.53;;;0.80;;
16892;SDS011;8563;52.242;9.098;2024-02-23T07:13:24;3.17;;;0.90;;
16892;SDS011;8563;52.242;9.098;2024-02-23T07:15:59;5.37;;;1.00;;
16892;SDS011;8563;52.242;9.098;2024-02-23T07:18:32;2.37;;;1.00;;
16892;SDS011;8563;52.242;9.098;2024-02-23T07:21:04;5.10;;;0.70;;
16892;SDS011;8563;52.242;9.098;2024-02-23T07:23:36;5.03;;;1.07;;
16892;SDS011;8563;52.242;9.098;2024-02-23T07:26:08;6.10;;;0.90;;
16892;SDS011;8563;52.242;9.098;2024-02-23T07:28:41;3.00;;;0.80;;
16892;SDS011;8563;52.242;9.098;2024-02-23T07:31:14;5.07;;;0.90;;
16892;SDS011;8563;52.242;9.098;2024-02-23T07:33:46;3.13;;;0.87;;
16892;SDS011;8563;52.242;9.098;2024-02-23T07:36:19;2.40;;;0.60;;
16892;SDS011;8563;52.242;9.098;2024-02-23T07:38:51;3.30;;;0.80;;
16892;SDS011;8563;52.242;9.098;2024-02-23T07:41:23;5.80;;;0.93;;
16892;SDS011;8563;52.242;9.098;2024-02-23T07:43:56;2.77;;;1.00;;
16892;SDS011;8563;52.242;9.098;2024-02-23T07:46:29;2.97;;;0.80;;
16892;SDS011;8563;52.242;9.098;2024-02-23T07:49:02;3.03;;;0.87;;
16892;SDS011;8563;52.242;9.098;2024-02-23T07:51:34;3.07;;;0.70;;
16892;SDS011;8563;52.242;9.098;2024-02-23T07:54:06;5.23;;;1.00;;
16892;SDS011;8563;52.242;9.098;2024-02-23T07:56:39;2.87;;;0.77;;
16892;SDS011;8563;52.242;9.098;2024-02-23T07:59:11;3.07;;;0.73;;
16892;SDS011;8563;52.242;9.098;2024-02-23T08:01:45;3.03;;;1.13;;
16892;SDS011;8563;52.242;9.098;2024-02-23T08:04:17;4.10;;;0.90;;
16892;SDS011;8563;52.242;9.098;2024-02-23T08:06:49;3.87;;;0.70;;
16892;SDS011;8563;52.242;9.098;2024-02-23T08:09:22;3.83;;;1.03;;
16892;SDS011;8563;52.242;9.098;2024-02-23T08:11:54;2.43;;;0.80;;
16892;SDS011;8563;52.242;9.098;2024-02-23T08:14:27;3.83;;;1.00;;
16892;SDS011;8563;52.242;9.098;2024-02-23T08:17:00;2.90;;;0.63;;
16892;SDS011;8563;52.242;9.098;2024-02-23T08:19:33;2.80;;;0.70;;
16892;SDS011;8563;52.242;9.098;2024-02-23T08:22:05;1.93;;;0.50;;
16892;SDS011;8563;52.242;9.098;2024-02-23T08:24:37;3.60;;;0.90;;
16892;SDS011;8563;52.242;9.098;2024-02-23T08:27:09;1.70;;;0.60;;
16892;SDS011;8563;52.242;9.098;2024-02-23T08:29:42;3.67;;;0.90;;
16892;SDS011;8563;52.242;9.098;2024-02-23T08:32:15;1.80;;;0.73;;
16892;SDS011;8563;52.242;9.098;2024-02-23T08:34:49;2.67;;;0.90;;
16892;SDS011;8563;52.242;9.098;2024-02-23T08:37:23;2.73;;;0.80;;
16892;SDS011;8563;52.242;9.098;2024-02-23T08:39:55;4.07;;;1.13;;
16892;SDS011;8563;52.242;9.098;2024-02-23T08:42:27;2.67;;;1.00;;
16892;SDS011;8563;52.242;9.098;2024-02-23T08:45:00;2.80;;;1.00;;
16892;SDS011;8563;52.242;9.098;2024-02-23T08:47:33;6.13;;;0.70;;
16892;SDS011;8563;52.242;9.098;2024-02-23T08:50:06;4.13;;;0.70;;
16892;SDS011;8563;52.242;9.098;2024-02-23T08:52:39;3.57;;;0.90;;
16892;SDS011;8563;52.242;9.098;2024-02-23T08:55:11;3.40;;;0.90;;
16892;SDS011;8563;52.242;9.098;2024-02-23T08:57:44;4.50;;;0.80;;
16892;SDS011;8563;52.242;9.098;2024-02-23T09:00:16;3.07;;;0.87;;
16892;SDS011;8563;52.242;9.098;2024-02-23T09:02:51;2.13;;;0.50;;
16892;SDS011;8563;52.242;9.098;2024-02-23T09:05:23;4.27;;;0.90;;
16892;SDS011;8563;52.242;9.098;2024-02-23T09:07:55;2.30;;;0.50;;
16892;SDS011;8563;52.242;9.098;2024-02-23T09:10:28;1.63;;;0.50;;
16892;SDS011;8563;52.242;9.098;2024-02-23T09:13:00;2.53;;;0.70;;
16892;SDS011;8563;52.242;9.098;2024-02-23T09:15:33;4.23;;;0.60;;
16892;SDS011;8563;52.242;9.098;2024-02-23T09:18:07;3.47;;;0.60;;
16892;SDS011;8563;52.242;9.098;2024-02-23T09:20:39;3.03;;;0.60;;
16892;SDS011;8563;52.242;9.098;2024-02-23T09:23:12;1.67;;;0.60;;
16892;SDS011;8563;52.242;9.098;2024-02-23T09:25:44;3.07;;;0.87;;
16892;SDS011;8563;52.242;9.098;2024-02-23T09:28:16;2.83;;;0.73;;
16892;SDS011;8563;52.242;9.098;2024-02-23T09:30:49;3.30;;;0.97;;
16892;SDS011;8563;52.242;9.098;2024-02-23T09:33:23;4.47;;;0.70;;
16892;SDS011;8563;52.242;9.098;2024-02-23T09:35:55;3.30;;;0.80;;
16892;SDS011;8563;52.242;9.098;2024-02-23T09:38:28;2.77;;;0.70;;
16892;SDS011;8563;52.242;9.098;2024-02-23T09:41:03;3.03;;;0.77;;
16892;SDS011;8563;52.242;9.098;2024-02-23T09:43:35;1.60;;;0.60;;
16892;SDS011;8563;52.242;9.098;2024-02-23T09:46:07;2.23;;;0.90;;
16892;SDS011;8563;52.242;9.098;2024-02-23T09:48:41;3.90;;;0.60;;
16892;SDS011;8563;52.242;9.098;2024-02-23T09:51:14;2.07;;;0.90;;
16892;SDS011;8563;52.242;9.098;2024-02-23T09:53:47;3.50;;;0.77;;
16892;SDS011;8563;52.242;9.098;2024-02-23T09:56:22;2.60;;;0.60;;
16892;SDS011;8563;52.242;9.098;2024-02-23T09:58:59;2.93;;;0.80;;
16892;SDS011;8563;52.242;9.098;2024-02-23T10:01:33;3.10;;;0.60;;
16892;SDS011;8563;52.242;9.098;2024-02-23T10:04:08;3.43;;;0.80;;
16892;SDS011;8563;52.242;9.098;2024-02-23T10:06:40;1.93;;;0.60;;
16892;SDS011;8563;52.242;9.098;2024-02-23T10:09:13;1.17;;;0.50;;
16892;SDS011;8563;52.242;9.098;2024-02-23T10:11:45;2.53;;;0.90;;
16892;SDS011;8563;52.242;9.098;2024-02-23T10:14:23;3.03;;;0.80;;
16892;SDS011;8563;52.242;9.098;2024-02-23T10:16:55;2.90;;;0.77;;
16892;SDS011;8563;52.242;9.098;2024-02-23T10:19:29;2.13;;;0.90;;
16892;SDS011;8563;52.242;9.098;2024-02-23T10:22:01;3.20;;;0.60;;
16892;SDS011;8563;52.242;9.098;2024-02-23T10:24:33;2.23;;;0.63;;
16892;SDS011;8563;52.242;9.098;2024-02-23T10:27:07;4.63;;;0.90;;
16892;SDS011;8563;52.242;9.098;2024-02-23T10:29:40;2.13;;;0.60;;
16892;SDS011;8563;52.242;9.098;2024-02-23T10:32:13;2.50;;;0.80;;
16892;SDS011;8563;52.242;9.098;2024-02-23T10:34:49;4.43;;;0.57;;
16892;SDS011;8563;52.242;9.098;2024-02-23T10:37:22;3.50;;;0.50;;
16892;SDS011;8563;52.242;9.098;2024-02-23T10:39:57;2.17;;;0.80;;
16892;SDS011;8563;52.242;9.098;2024-02-23T10:42:35;3.03;;;1.17;;
16892;SDS011;8563;52.242;9.098;2024-02-23T10:45:09;2.87;;;0.73;;
16892;SDS011;8563;52.242;9.098;2024-02-23T10:47:42;2.50;;;0.53;;
16892;SDS011;8563;52.242;9.098;2024-02-23T10:50:16;1.83;;;0.57;;
16892;SDS011;8563;52.242;9.098;2024-02-23T10:52:50;2.67;;;0.70;;
16892;SDS011;8563;52.242;9.098;2024-02-23T10:55:23;2.03;;;0.60;;
16892;SDS011;8563;52.242;9.098;2024-02-23T10:57:58;2.53;;;0.70;;
16892;SDS011;8563;52.242;9.098;2024-02-23T11:00:31;2.10;;;0.77;;
16892;SDS011;8563;52.242;9.098;2024-02-23T11:03:04;2.50;;;0.70;;
16892;SDS011;8563;52.242;9.098;2024-02-23T11:05:39;1.97;;;0.77;;
16892;SDS011;8563;52.242;9.098;2024-02-23T11:08:12;2.43;;;0.73;;
16892;SDS011;8563;52.242;9.098;2024-02-23T11:10:48;2.47;;;0.63;;
16892;SDS011;8563;52.242;9.098;2024-02-23T11:13:29;1.50;;;0.60;;
16892;SDS011;8563;52.242;9.098;2024-02-23T11:16:02;4.73;;;0.67;;
16892;SDS011;8563;52.242;9.098;2024-02-23T11:18:35;2.20;;;0.80;;
16892;SDS011;8563;52.242;9.098;2024-02-23T11:21:10;2.77;;;0.97;;
16892;SDS011;8563;52.242;9.098;2024-02-23T11:23:42;2.43;;;0.53;;
16892;SDS011;8563;52.242;9.098;2024-02-23T11:26:15;2.10;;;0.60;;
16892;SDS011;8563;52.242;9.098;2024-02-23T11:28:51;2.23;;;0.67;;
16892;SDS011;8563;52.242;9.098;2024-02-23T11:31:25;5.27;;;0.80;;
16892;SDS011;8563;52.242;9.098;2024-02-23T11:34:01;4.27;;;0.70;;
16892;SDS011;8563;52.242;9.098;2024-02-23T11:36:41;2.93;;;0.70;;
16892;SDS011;8563;52.242;9.098;2024-02-23T11:39:13;3.30;;;0.70;;
16892;SDS011;8563;52.242;9.098;2024-02-23T11:41:47;2.23;;;0.70;;
16892;SDS011;8563;52.242;9.098;2024-02-23T11:44:20;4.40;;;1.00;;
16892;SDS011;8563;52.242;9.098;2024-02-23T11:46:53;2.93;;;0.90;;
16892;SDS011;8563;52.242;9.098;2024-02-23T11:49:27;2.10;;;0.80;;
16892;SDS011;8563;52.242;9.098;2024-02-23T11:52:01;2.23;;;0.90;;
16892;SDS011;8563;52.242;9.098;2024-02-23T11:54:34;1.70;;;0.70;;
16892;SDS011;8563;52.242;9.098;2024-02-23T11:57:06;2.07;;;0.80;;
16892;SDS011;8563;52.242;9.098;2024-02-23T11:59:39;1.67;;;0.70;;
16892;SDS011;8563;52.242;9.098;2024-02-23T12:02:12;2.20;;;0.90;;
16892;SDS011;8563;52.242;9.098;2024-02-23T12:04:44;3.43;;;1.00;;
16892;SDS011;8563;52.242;9.098;2024-02-23T12:07:18;3.90;;;0.70;;
16892;SDS011;8563;52.242;9.098;2024-02-23T12:09:51;3.43;;;0.83;;
16892;SDS011;8563;52.242;9.098;2024-02-23T12:12:24;2.90;;;0.73;;
16892;SDS011;8563;52.242;9.098;2024-02-23T12:14:57;2.13;;;0.80;;
16892;SDS011;8563;52.242;9.098;2024-02-23T12:17:30;2.43;;;1.17;;
16892;SDS011;8563;52.242;9.098;2024-02-23T12:20:03;2.13;;;0.70;;
16892;SDS011;8563;52.242;9.098;2024-02-23T12:22:37;2.27;;;0.83;;
16892;SDS011;8563;52.242;9.098;2024-02-23T12:25:09;2.33;;;0.57;;
16892;SDS011;8563;52.242;9.098;2024-02-23T12:27:44;2.07;;;0.70;;
16892;SDS011;8563;52.242;9.098;2024-02-23T12:30:16;1.90;;;0.60;;
16892;SDS011;8563;52.242;9.098;2024-02-23T12:32:48;2.77;;;0.60;;
16892;SDS011;8563;52.242;9.098;2024-02-23T12:35:20;1.60;;;0.60;;
16892;SDS011;8563;52.242;9.098;2024-02-23T12:37:54;2.53;;;0.80;;
16892;SDS011;8563;52.242;9.098;2024-02-23T12:40:27;2.20;;;0.70;;
16892;SDS011;8563;52.242;9.098;2024-02-23T12:42:59;3.43;;;0.93;;
16892;SDS011;8563;52.242;9.098;2024-02-23T12:45:31;2.10;;;0.60;;
16892;SDS011;8563;52.242;9.098;2024-02-23T12:48:04;1.93;;;0.70;;
16892;SDS011;8563;52.242;9.098;2024-02-23T12:50:36;1.63;;;0.60;;
16892;SDS011;8563;52.242;9.098;2024-02-23T12:53:10;1.50;;;0.60;;
16892;SDS011;8563;52.242;9.098;2024-02-23T12:56:02;2.40;;;0.73;;
16892;SDS011;8563;52.242;9.098;2024-02-23T12:58:35;1.77;;;0.53;;
16892;SDS011;8563;52.242;9.098;2024-02-23T13:01:08;1.53;;;0.70;;
16892;SDS011;8563;52.242;9.098;2024-02-23T13:03:41;3.33;;;0.83;;
16892;SDS011;8563;52.242;9.098;2024-02-23T13:06:13;2.87;;;0.50;;
16892;SDS011;8563;52.242;9.098;2024-02-23T13:08:47;1.40;;;0.67;;
16892;SDS011;8563;52.242;9.098;2024-02-23T13:11:19;1.30;;;0.50;;
16892;SDS011;8563;52.242;9.098;2024-02-23T13:13:52;5.93;;;0.70;;
16892;SDS011;8563;52.242;9.098;2024-02-23T13:16:24;2.63;;;0.80;;
16892;SDS011;8563;52.242;9.098;2024-02-23T13:18:56;2.20;;;0.70;;
16892;SDS011;8563;52.242;9.098;2024-02-23T13:21:28;1.63;;;0.60;;
16892;SDS011;8563;52.242;9.098;2024-02-23T13:24:04;2.33;;;0.57;;
16892;SDS011;8563;52.242;9.098;2024-02-23T13:26:37;2.83;;;0.80;;
16892;SDS011;8563;52.242;9.098;2024-02-23T13:29:09;1.13;;;0.60;;
16892;SDS011;8563;52.242;9.098;2024-02-23T13:31:41;2.13;;;0.60;;
16892;SDS011;8563;52.242;9.098;2024-02-23T13:34:14;2.30;;;0.80;;
16892;SDS011;8563;52.242;9.098;2024-02-23T13:36:48;1.70;;;0.60;;
16892;SDS011;8563;52.242;9.098;2024-02-23T13:39:24;2.80;;;0.60;;
16892;SDS011;8563;52.242;9.098;2024-02-23T13:41:56;1.53;;;0.60;;
16892;SDS011;8563;52.242;9.098;2024-02-23T13:44:28;3.03;;;0.80;;
16892;SDS011;8563;52.242;9.098;2024-02-23T13:47:01;2.40;;;0.50;;
16892;SDS011;8563;52.242;9.098;2024-02-23T13:49:34;1.33;;;0.63;;
16892;SDS011;8563;52.242;9.098;2024-02-23T13:52:06;1.50;;;0.50;;
16892;SDS011;8563;52.242;9.098;2024-02-23T13:54:40;2.47;;;0.80;;
16892;SDS011;8563;52.242;9.098;2024-02-23T13:57:13;1.30;;;0.50;;
16892;SDS011;8563;52.242;9.098;2024-02-23T13:59:45;1.80;;;0.47;;
16892;SDS011;8563;52.242;9.098;2024-02-23T14:02:24;2.10;;;0.53;;
16892;SDS011;8563;52.242;9.098;2024-02-23T14:05:00;1.57;;;0.73;;
16892;SDS011;8563;52.242;9.098;2024-02-23T14:07:34;2.50;;;0.60;;
16892;SDS011;8563;52.242;9.098;2024-02-23T14:10:08;1.93;;;0.43;;
16892;SDS011;8563;52.242;9.098;2024-02-23T14:12:41;1.93;;;0.70;;
16892;SDS011;8563;52.242;9.098;2024-02-23T14:15:13;1.93;;;0.63;;
16892;SDS011;8563;52.242;9.098;2024-02-23T14:17:46;2.00;;;0.60;;
16892;SDS011;8563;52.242;9.098;2024-02-23T14:20:19;2.13;;;0.60;;
16892;SDS011;8563;52.242;9.098;2024-02-23T14:22:52;1.90;;;0.50;;
16892;SDS011;8563;52.242;9.098;2024-02-23T14:25:25;2.13;;;0.53;;
16892;SDS011;8563;52.242;9.098;2024-02-23T14:27:58;1.00;;;0.80;;
16892;SDS011;8563;52.242;9.098;2024-02-23T14:30:30;2.70;;;0.57;;
16892;SDS011;8563;52.242;9.098;2024-02-23T14:33:02;3.43;;;0.80;;
16892;SDS011;8563;52.242;9.098;2024-02-23T14:35:35;2.33;;;0.50;;
16892;SDS011;8563;52.242;9.098;2024-02-23T14:38:07;1.77;;;0.80;;
16892;SDS011;8563;52.242;9.098;2024-02-23T14:40:41;1.67;;;0.50;;
16892;SDS011;8563;52.242;9.098;2024-02-23T14:43:13;1.73;;;0.60;;
16892;SDS011;8563;52.242;9.098;2024-02-23T14:45:46;1.27;;;0.53;;
16892;SDS011;8563;52.242;9.098;2024-02-23T14:48:18;0.97;;;0.40;;
16892;SDS011;8563;52.242;9.098;2024-02-23T14:50:50;3.43;;;0.80;;
16892;SDS011;8563;52.242;9.098;2024-02-23T14:53:23;1.77;;;0.40;;
16892;SDS011;8563;52.242;9.098;2024-02-23T14:55:57;2.80;;;0.60;;
16892;SDS011;8563;52.242;9.098;2024-02-23T14:58:30;1.63;;;0.70;;
16892;SDS011;8563;52.242;9.098;2024-02-23T15:01:02;3.20;;;1.00;;
16892;SDS011;8563;52.242;9.098;2024-02-23T15:03:34;2.87;;;0.70;;
16892;SDS011;8563;52.242;9.098;2024-02-23T15:06:07;1.70;;;0.50;;
16892;SDS011;8563;52.242;9.098;2024-02-23T15:08:40;2.60;;;0.73;;
16892;SDS011;8563;52.242;9.098;2024-02-23T15:11:14;1.53;;;0.50;;
16892;SDS011;8563;52.242;9.098;2024-02-23T15:13:46;3.67;;;0.60;;
16892;SDS011;8563;52.242;9.098;2024-02-23T15:16:19;1.30;;;0.60;;
16892;SDS011;8563;52.242;9.098;2024-02-23T15:18:51;1.87;;;0.50;;
16892;SDS011;8563;52.242;9.098;2024-02-23T15:21:23;1.00;;;0.57;;
16892;SDS011;8563;52.242;9.098;2024-02-23T15:23:56;2.33;;;0.73;;
16892;SDS011;8563;52.242;9.098;2024-02-23T15:26:29;1.80;;;0.57;;
16892;SDS011;8563;52.242;9.098;2024-02-23T15:29:02;2.13;;;0.70;;
16892;SDS011;8563;52.242;9.098;2024-02-23T15:31:34;1.53;;;0.60;;
16892;SDS011;8563;52.242;9.098;2024-02-23T15:34:07;0.87;;;0.40;;